sensor_id;sensor_type;location;lat;lon;timestamp;pressure;altitude;pressure_sealevel;temperature;humidity
42591;BME280;28218;53.342;-6.216;2022-12-11T00:01:10;100688.81;;;2.18;100.00
42591;BME280;28218;53.342;-6.216;2022-12-11T00:03:42;100686.22;;;2.18;100.00
42591;BME280;28218;53.342;-6.216;2022-12-11T00:06:12;100687.88;;;2.19;100.00
42591;BME280;28218;53.342;-6.216;2022-12-11T00:08:41;100683.72;;;2.16;100.00
42591;BME280;28218;53.342;-6.216;2022-12-11T00:11:13;100688.69;;;2.19;100.00
42591;BME280;28218;53.342;-6.216;2022-12-11T00:13:41;100686.22;;;2.18;100.00
42591;BME280;28218;53.342;-6.216;2022-12-11T00:16:10;100693.06;;;2.19;100.00
42591;BME280;28218;53.342;-6.216;2022-12-11T00:18:38;100684.31;;;2.20;100.00
42591;BME280;28218;53.342;-6.216;2022-12-11T00:21:09;100678.31;;;2.19;100.00
42591;BME280;28218;53.342;-6.216;2022-12-11T00:23:37;100675.81;;;2.18;100.00
42591;BME280;28218;53.342;-6.216;2022-12-11T00:26:07;100674.19;;;2.17;100.00
42591;BME280;28218;53.342;-6.216;2022-12-11T00:28:38;100686.22;;;2.18;100.00
42591;BME280;28218;53.342;-6.216;2022-12-11T00:31:07;100688.22;;;2.25;100.00
42591;BME280;28218;53.342;-6.216;2022-12-11T00:33:36;100692.50;;;2.26;100.00
42591;BME280;28218;53.342;-6.216;2022-12-11T00:36:10;100693.69;;;2.22;100.00
42591;BME280;28218;53.342;-6.216;2022-12-11T00:38:39;100696.16;;;2.24;100.00
42591;BME280;28218;53.342;-6.216;2022-12-11T00:41:07;100697.94;;;2.23;100.00
42591;BME280;28218;53.342;-6.216;2022-12-11T00:43:37;100701.97;;;2.27;100.00
42591;BME280;28218;53.342;-6.216;2022-12-11T00:46:05;100699.38;;;2.27;100.00
42591;BME280;28218;53.342;-6.216;2022-12-11T00:48:33;100703.63;;;2.28;100.00
42591;BME280;28218;53.342;-6.216;2022-12-11T00:51:02;100696.63;;;2.29;100.00
42591;BME280;28218;53.342;-6.216;2022-12-11T00:53:30;100695.13;;;2.26;100.00
42591;BME280;28218;53.342;-6.216;2022-12-11T00:55:59;100695.94;;;2.27;100.00
42591;BME280;28218;53.342;-6.216;2022-12-11T00:58:27;100696.88;;;2.26;100.00
42591;BME280;28218;53.342;-6.216;2022-12-11T01:01:04;100682.56;;;2.20;100.00
42591;BME280;28218;53.342;-6.216;2022-12-11T01:03:33;100683.50;;;2.19;100.00
42591;BME280;28218;53.342;-6.216;2022-12-11T01:06:01;100678.22;;;2.32;100.00
42591;BME280;28218;53.342;-6.216;2022-12-11T01:08:30;100683.50;;;2.30;100.00
42591;BME280;28218;53.342;-6.216;2022-12-11T01:11:06;100682.47;;;2.22;100.00
42591;BME280;28218;53.342;-6.216;2022-12-11T01:13:35;100684.47;;;2.29;100.00
42591;BME280;28218;53.342;-6.216;2022-12-11T01:16:09;100683.03;;;2.25;100.00
42591;BME280;28218;53.342;-6.216;2022-12-11T01:18:38;100679.50;;;2.26;100.00
42591;BME280;28218;53.342;-6.216;2022-12-11T01:21:08;100681.16;;;2.27;100.00
42591;BME280;28218;53.342;-6.216;2022-12-11T01:23:36;100685.88;;;2.22;100.00
42591;BME280;28218;53.342;-6.216;2022-12-11T01:26:06;100685.16;;;2.20;100.00
42591;BME280;28218;53.342;-6.216;2022-12-11T01:28:35;100675.00;;;2.17;100.00
42591;BME280;28218;53.342;-6.216;2022-12-11T01:31:08;100687.06;;;2.18;100.00
42591;BME280;28218;53.342;-6.216;2022-12-11T01:33:37;100693.19;;;2.17;100.00
42591;BME280;28218;53.342;-6.216;2022-12-11T01:36:07;100687.06;;;2.18;100.00
42591;BME280;28218;53.342;-6.216;2022-12-11T01:38:35;100690.59;;;2.17;100.00
42591;BME280;28218;53.342;-6.216;2022-12-11T01:41:04;100681.03;;;2.18;100.00
42591;BME280;28218;53.342;-6.216;2022-12-11T01:43:32;100680.19;;;2.17;100.00
42591;BME280;28218;53.342;-6.216;2022-12-11T01:46:01;100676.03;;;2.15;100.00
42591;BME280;28218;53.342;-6.216;2022-12-11T01:48:31;100675.22;;;2.14;100.00
42591;BME280;28218;53.342;-6.216;2022-12-11T01:51:08;100677.69;;;2.16;100.00
42591;BME280;28218;53.342;-6.216;2022-12-11T01:53:39;100665.44;;;2.18;100.00
42591;BME280;28218;53.342;-6.216;2022-12-11T01:56:09;100673.97;;;2.31;100.00
42591;BME280;28218;53.342;-6.216;2022-12-11T01:58:40;100669.69;;;2.30;100.00
42591;BME280;28218;53.342;-6.216;2022-12-11T02:01:15;100669.25;;;2.36;100.00
42591;BME280;28218;53.342;-6.216;2022-12-11T02:03:48;100662.38;;;2.35;100.00
42591;BME280;28218;53.342;-6.216;2022-12-11T02:06:29;100663.22;;;2.36;100.00
42591;BME280;28218;53.342;-6.216;2022-12-11T02:08:58;100656.47;;;2.33;100.00
42591;BME280;28218;53.342;-6.216;2022-12-11T02:11:34;100664.41;;;2.32;100.00
42591;BME280;28218;53.342;-6.216;2022-12-11T02:14:12;100664.75;;;2.27;100.00
42591;BME280;28218;53.342;-6.216;2022-12-11T02:16:45;100667.44;;;2.25;100.00
42591;BME280;28218;53.342;-6.216;2022-12-11T02:19:38;100682.00;;;2.28;100.00
42591;BME280;28218;53.342;-6.216;2022-12-11T02:22:12;100679.16;;;2.31;100.00
42591;BME280;28218;53.342;-6.216;2022-12-11T02:24:53;100690.13;;;2.35;100.00
42591;BME280;28218;53.342;-6.216;2022-12-11T02:27:32;100691.09;;;2.34;100.00
42591;BME280;28218;53.342;-6.216;2022-12-11T02:30:06;100692.75;;;2.35;100.00
42591;BME280;28218;53.342;-6.216;2022-12-11T02:32:37;100689.22;;;2.36;100.00
42591;BME280;28218;53.342;-6.216;2022-12-11T02:35:12;100697.03;;;2.36;100.00
42591;BME280;28218;53.342;-6.216;2022-12-11T02:37:44;100697.84;;;2.36;100.00
42591;BME280;28218;53.342;-6.216;2022-12-11T02:40:16;100694.28;;;2.37;100.00
42591;BME280;28218;53.342;-6.216;2022-12-11T02:42:47;100697.03;;;2.36;100.00
42591;BME280;28218;53.342;-6.216;2022-12-11T02:45:19;100689.91;;;2.38;100.00
42591;BME280;28218;53.342;-6.216;2022-12-11T02:47:50;100695.59;;;2.43;100.00
42591;BME280;28218;53.342;-6.216;2022-12-11T02:50:21;100689.09;;;2.37;100.00
42591;BME280;28218;53.342;-6.216;2022-12-11T02:52:53;100693.34;;;2.38;100.00
42591;BME280;28218;53.342;-6.216;2022-12-11T02:55:24;100692.66;;;2.36;100.00
42591;BME280;28218;53.342;-6.216;2022-12-11T02:57:57;100681.41;;;2.36;100.00
42591;BME280;28218;53.342;-6.216;2022-12-11T03:00:28;100675.97;;;2.39;100.00
42591;BME280;28218;53.342;-6.216;2022-12-11T03:02:56;100675.97;;;2.39;100.00
42591;BME280;28218;53.342;-6.216;2022-12-11T03:05:25;100673.16;;;2.42;100.00
42591;BME280;28218;53.342;-6.216;2022-12-11T03:07:54;100672.31;;;2.41;100.00
42591;BME280;28218;53.342;-6.216;2022-12-11T03:10:22;100657.41;;;2.43;100.00
42591;BME280;28218;53.342;-6.216;2022-12-11T03:12:52;100661.56;;;2.46;100.00
42591;BME280;28218;53.342;-6.216;2022-12-11T03:15:30;100653.75;;;2.46;100.00
42591;BME280;28218;53.342;-6.216;2022-12-11T03:18:06;100650.44;;;2.44;100.00
42591;BME280;28218;53.342;-6.216;2022-12-11T03:20:40;100654.59;;;2.46;100.00
42591;BME280;28218;53.342;-6.216;2022-12-11T03:23:17;100653.16;;;2.42;100.00
42591;BME280;28218;53.342;-6.216;2022-12-11T03:25:52;100654.94;;;2.42;100.00
42591;BME280;28218;53.342;-6.216;2022-12-11T03:28:26;100642.88;;;2.41;100.00
42591;BME280;28218;53.342;-6.216;2022-12-11T03:31:02;100641.22;;;2.40;100.00
42591;BME280;28218;53.342;-6.216;2022-12-11T03:33:34;100640.28;;;2.41;100.00
42591;BME280;28218;53.342;-6.216;2022-12-11T03:36:07;100632.00;;;2.36;100.00
42591;BME280;28218;53.342;-6.216;2022-12-11T03:38:40;100638.88;;;2.37;100.00
42591;BME280;28218;53.342;-6.216;2022-12-11T03:41:11;100634.50;;;2.37;100.00
42591;BME280;28218;53.342;-6.216;2022-12-11T03:43:43;100632.00;;;2.36;100.00
42591;BME280;28218;53.342;-6.216;2022-12-11T03:46:14;100633.88;;;2.34;100.00
42591;BME280;28218;53.342;-6.216;2022-12-11T03:48:44;100642.63;;;2.33;100.00
42591;BME280;28218;53.342;-6.216;2022-12-11T03:51:14;100642.75;;;2.31;100.00
42591;BME280;28218;53.342;-6.216;2022-12-11T03:53:44;100647.25;;;2.29;100.00
42591;BME280;28218;53.342;-6.216;2022-12-11T03:56:13;100647.25;;;2.29;100.00
42591;BME280;28218;53.342;-6.216;2022-12-11T03:58:43;100649.72;;;2.30;100.00
42591;BME280;28218;53.342;-6.216;2022-12-11T04:01:12;100655.63;;;2.33;100.00
42591;BME280;28218;53.342;-6.216;2022-12-11T04:03:41;100649.72;;;2.30;100.00
42591;BME280;28218;53.342;-6.216;2022-12-11T04:06:09;100653.03;;;2.33;100.00
42591;BME280;28218;53.342;-6.216;2022-12-11T04:08:37;100648.78;;;2.32;100.00
42591;BME280;28218;53.342;-6.216;2022-12-11T04:11:05;100653.16;;;2.31;100.00
42591;BME280;28218;53.342;-6.216;2022-12-11T04:13:51;100650.56;;;2.31;100.00
42591;BME280;28218;53.342;-6.216;2022-12-11T04:16:34;100653.16;;;2.31;100.00
42591;BME280;28218;53.342;-6.216;2022-12-11T04:19:03;100658.25;;;2.33;100.00
42591;BME280;28218;53.342;-6.216;2022-12-11T04:21:49;100659.06;;;2.33;100.00
42591;BME280;28218;53.342;-6.216;2022-12-11T04:24:34;100663.44;;;2.33;100.00
42591;BME280;28218;53.342;-6.216;2022-12-11T04:27:02;100659.06;;;2.33;100.00
42591;BME280;28218;53.342;-6.216;2022-12-11T04:29:31;100659.88;;;2.34;100.00
42591;BME280;28218;53.342;-6.216;2022-12-11T04:32:00;100647.84;;;2.33;100.00
42591;BME280;28218;53.342;-6.216;2022-12-11T04:34:29;100654.00;;;2.32;100.00
42591;BME280;28218;53.342;-6.216;2022-12-11T04:36:57;100647.00;;;2.32;100.00
42591;BME280;28218;53.342;-6.216;2022-12-11T04:39:25;100648.66;;;2.33;100.00
42591;BME280;28218;53.342;-6.216;2022-12-11T04:41:54;100634.84;;;2.33;100.00
42591;BME280;28218;53.342;-6.216;2022-12-11T04:44:22;100638.50;;;2.30;100.00
42591;BME280;28218;53.342;-6.216;2022-12-11T04:46:50;100639.69;;;2.26;100.00
42591;BME280;28218;53.342;-6.216;2022-12-11T04:49:20;100639.19;;;2.21;100.00
42591;BME280;28218;53.342;-6.216;2022-12-11T04:51:48;100624.88;;;2.15;100.00
42591;BME280;28218;53.342;-6.216;2022-12-11T04:54:16;100629.38;;;2.13;100.00
42591;BME280;28218;53.342;-6.216;2022-12-11T04:56:45;100628.66;;;2.11;100.00
42591;BME280;28218;53.342;-6.216;2022-12-11T04:59:13;100630.34;;;2.12;100.00
42591;BME280;28218;53.342;-6.216;2022-12-11T05:01:41;100633.75;;;2.13;100.00
42591;BME280;28218;53.342;-6.216;2022-12-11T05:04:10;100638.84;;;2.14;100.00
42591;BME280;28218;53.342;-6.216;2022-12-11T05:06:39;100643.06;;;2.15;100.00
42591;BME280;28218;53.342;-6.216;2022-12-11T05:09:09;100649.09;;;2.16;100.00
42591;BME280;28218;53.342;-6.216;2022-12-11T05:11:38;100664.59;;;2.17;100.00
42591;BME280;28218;53.342;-6.216;2022-12-11T05:14:06;100669.81;;;2.17;100.00
42591;BME280;28218;53.342;-6.216;2022-12-11T05:16:35;100671.44;;;2.18;100.00
42591;BME280;28218;53.342;-6.216;2022-12-11T05:19:03;100672.16;;;2.20;100.00
42591;BME280;28218;53.342;-6.216;2022-12-11T05:21:31;100669.69;;;2.19;100.00
42591;BME280;28218;53.342;-6.216;2022-12-11T05:24:02;100670.72;;;2.16;100.00
42591;BME280;28218;53.342;-6.216;2022-12-11T05:26:31;100675.81;;;2.18;100.00
42591;BME280;28218;53.342;-6.216;2022-12-11T05:28:59;100680.19;;;2.17;100.00
42591;BME280;28218;53.342;-6.216;2022-12-11T05:31:28;100683.50;;;2.19;100.00
42591;BME280;28218;53.342;-6.216;2022-12-11T05:33:56;100684.22;;;2.21;100.00
42591;BME280;28218;53.342;-6.216;2022-12-11T05:36:26;100697.09;;;2.23;100.00
42591;BME280;28218;53.342;-6.216;2022-12-11T05:38:55;100696.16;;;2.24;100.00
42591;BME280;28218;53.342;-6.216;2022-12-11T05:41:28;100701.22;;;2.25;100.00
42591;BME280;28218;53.342;-6.216;2022-12-11T05:43:56;100698.75;;;2.24;100.00
42591;BME280;28218;53.342;-6.216;2022-12-11T05:46:26;100696.97;;;2.24;100.00
42591;BME280;28218;53.342;-6.216;2022-12-11T05:48:56;100696.97;;;2.24;100.00
42591;BME280;28218;53.342;-6.216;2022-12-11T05:51:26;100698.75;;;2.24;100.00
42591;BME280;28218;53.342;-6.216;2022-12-11T05:53:55;100700.03;;;2.18;100.00
42591;BME280;28218;53.342;-6.216;2022-12-11T05:56:27;100706.19;;;2.17;100.00
42591;BME280;28218;53.342;-6.216;2022-12-11T05:58:56;100699.94;;;2.20;100.00
42591;BME280;28218;53.342;-6.216;2022-12-11T06:01:27;100695.56;;;2.20;100.00
42591;BME280;28218;53.342;-6.216;2022-12-11T06:03:56;100693.69;;;2.22;100.00
42591;BME280;28218;53.342;-6.216;2022-12-11T06:06:26;100688.47;;;2.22;100.00
42591;BME280;28218;53.342;-6.216;2022-12-11T06:08:55;100687.53;;;2.23;100.00
42591;BME280;28218;53.342;-6.216;2022-12-11T06:11:28;100688.34;;;2.24;100.00
42591;BME280;28218;53.342;-6.216;2022-12-11T06:13:57;100684.81;;;2.25;100.00
42591;BME280;28218;53.342;-6.216;2022-12-11T06:16:25;100682.34;;;2.23;100.00
42591;BME280;28218;53.342;-6.216;2022-12-11T06:18:53;100697.22;;;2.21;100.00
42591;BME280;28218;53.342;-6.216;2022-12-11T06:21:25;100697.94;;;2.23;100.00
42591;BME280;28218;53.342;-6.216;2022-12-11T06:23:55;100696.75;;;2.27;100.00
42591;BME280;28218;53.342;-6.216;2022-12-11T06:26:25;100693.19;;;2.17;100.00
42591;BME280;28218;53.342;-6.216;2022-12-11T06:28:54;100697.91;;;2.12;100.00
42591;BME280;28218;53.342;-6.216;2022-12-11T06:31:22;100704.03;;;2.11;100.00
42591;BME280;28218;53.342;-6.216;2022-12-11T06:33:50;100699.78;;;2.10;100.00
42591;BME280;28218;53.342;-6.216;2022-12-11T06:36:20;100693.63;;;2.11;100.00
42591;BME280;28218;53.342;-6.216;2022-12-11T06:38:50;100695.19;;;2.14;100.00
42591;BME280;28218;53.342;-6.216;2022-12-11T06:41:18;100695.69;;;2.19;100.00
42591;BME280;28218;53.342;-6.216;2022-12-11T06:43:48;100692.25;;;2.18;100.00
42591;BME280;28218;53.342;-6.216;2022-12-11T06:46:18;100701.47;;;2.22;100.00
42591;BME280;28218;53.342;-6.216;2022-12-11T06:48:47;100695.00;;;2.28;100.00
42591;BME280;28218;53.342;-6.216;2022-12-11T06:51:17;100696.75;;;2.27;100.00
42591;BME280;28218;53.342;-6.216;2022-12-11T06:53:49;100697.47;;;2.29;100.00
42591;BME280;28218;53.342;-6.216;2022-12-11T06:56:17;100690.47;;;2.30;100.00
42591;BME280;28218;53.342;-6.216;2022-12-11T06:58:46;100693.00;;;2.32;100.00
42591;BME280;28218;53.342;-6.216;2022-12-11T07:01:17;100687.78;;;2.32;100.00
42591;BME280;28218;53.342;-6.216;2022-12-11T07:03:46;100686.97;;;2.31;100.00
42591;BME280;28218;53.342;-6.216;2022-12-11T07:06:15;100681.78;;;2.31;100.00
42591;BME280;28218;53.342;-6.216;2022-12-11T07:08:43;100683.50;;;2.30;100.00
42591;BME280;28218;53.342;-6.216;2022-12-11T07:11:14;100672.19;;;2.32;100.00
42591;BME280;28218;53.342;-6.216;2022-12-11T07:13:42;100680.09;;;2.30;100.00
42591;BME280;28218;53.342;-6.216;2022-12-11T07:16:13;100687.31;;;2.38;100.00
42591;BME280;28218;53.342;-6.216;2022-12-11T07:18:46;100690.13;;;2.35;100.00
42591;BME280;28218;53.342;-6.216;2022-12-11T07:21:16;100693.56;;;2.35;100.00
42591;BME280;28218;53.342;-6.216;2022-12-11T07:23:44;100695.34;;;2.35;100.00
42591;BME280;28218;53.342;-6.216;2022-12-11T07:26:14;100694.50;;;2.34;100.00
42591;BME280;28218;53.342;-6.216;2022-12-11T07:28:43;100693.69;;;2.34;100.00
42591;BME280;28218;53.342;-6.216;2022-12-11T07:31:12;100692.88;;;2.33;100.00
42591;BME280;28218;53.342;-6.216;2022-12-11T07:33:43;100686.97;;;2.31;100.00
42591;BME280;28218;53.342;-6.216;2022-12-11T07:36:12;100695.69;;;2.30;100.00
42591;BME280;28218;53.342;-6.216;2022-12-11T07:38:41;100703.63;;;2.28;100.00
42591;BME280;28218;53.342;-6.216;2022-12-11T07:41:12;100700.06;;;2.29;100.00
42591;BME280;28218;53.342;-6.216;2022-12-11T07:43:41;100695.13;;;2.26;100.00
42591;BME280;28218;53.342;-6.216;2022-12-11T07:46:11;100704.78;;;2.24;100.00
42591;BME280;28218;53.342;-6.216;2022-12-11T07:48:43;100703.34;;;2.20;100.00
42591;BME280;28218;53.342;-6.216;2022-12-11T07:51:13;100711.63;;;2.14;100.00
42591;BME280;28218;53.342;-6.216;2022-12-11T07:53:43;100711.75;;;2.13;100.00
42591;BME280;28218;53.342;-6.216;2022-12-11T07:56:11;100712.91;;;2.09;100.00
42591;BME280;28218;53.342;-6.216;2022-12-11T07:58:40;100711.47;;;2.04;100.00
42591;BME280;28218;53.342;-6.216;2022-12-11T08:01:10;100707.09;;;2.05;100.00
42591;BME280;28218;53.342;-6.216;2022-12-11T08:03:39;100709.00;;;2.03;100.00
42591;BME280;28218;53.342;-6.216;2022-12-11T08:06:10;100719.59;;;2.00;100.00
42591;BME280;28218;53.342;-6.216;2022-12-11T08:08:39;100725.00;;;1.97;100.00
42591;BME280;28218;53.342;-6.216;2022-12-11T08:11:10;100721.72;;;1.95;100.00
42591;BME280;28218;53.342;-6.216;2022-12-11T08:13:38;100723.50;;;1.94;100.00
42591;BME280;28218;53.342;-6.216;2022-12-11T08:16:09;100724.31;;;1.95;100.00
42591;BME280;28218;53.342;-6.216;2022-12-11T08:18:39;100719.34;;;1.92;100.00
42591;BME280;28218;53.342;-6.216;2022-12-11T08:21:15;100719.44;;;1.90;100.00
42591;BME280;28218;53.342;-6.216;2022-12-11T08:23:44;100731.63;;;1.90;100.00
42591;BME280;28218;53.342;-6.216;2022-12-11T08:26:14;100736.91;;;1.88;100.00
42591;BME280;28218;53.342;-6.216;2022-12-11T08:28:43;100744.69;;;1.88;100.00
42591;BME280;28218;53.342;-6.216;2022-12-11T08:31:13;100737.16;;;1.85;100.00
42591;BME280;28218;53.342;-6.216;2022-12-11T08:33:42;100742.47;;;1.84;100.00
42591;BME280;28218;53.342;-6.216;2022-12-11T08:36:14;100746.94;;;1.82;100.00
42591;BME280;28218;53.342;-6.216;2022-12-11T08:38:43;100750.47;;;1.81;100.00
42591;BME280;28218;53.342;-6.216;2022-12-11T08:41:14;100755.88;;;1.77;100.00
42591;BME280;28218;53.342;-6.216;2022-12-11T08:43:42;100758.59;;;1.76;100.00
42591;BME280;28218;53.342;-6.216;2022-12-11T08:46:12;100757.03;;;1.73;100.00
42591;BME280;28218;53.342;-6.216;2022-12-11T08:48:41;100758.81;;;1.73;100.00
42591;BME280;28218;53.342;-6.216;2022-12-11T08:51:14;100767.53;;;1.72;100.00
42591;BME280;28218;53.342;-6.216;2022-12-11T08:53:43;100767.53;;;1.72;100.00
42591;BME280;28218;53.342;-6.216;2022-12-11T08:56:12;100764.13;;;1.71;100.00
42591;BME280;28218;53.342;-6.216;2022-12-11T08:58:42;100769.53;;;1.68;100.00
42591;BME280;28218;53.342;-6.216;2022-12-11T09:01:12;100774.63;;;1.70;100.00
42591;BME280;28218;53.342;-6.216;2022-12-11T09:03:41;100772.13;;;1.68;100.00
42591;BME280;28218;53.342;-6.216;2022-12-11T09:06:12;100785.03;;;1.70;100.00
42591;BME280;28218;53.342;-6.216;2022-12-11T09:08:43;100782.31;;;1.71;100.00
42591;BME280;28218;53.342;-6.216;2022-12-11T09:11:20;100779.59;;;1.73;100.00
42591;BME280;28218;53.342;-6.216;2022-12-11T09:13:48;100776.91;;;1.74;100.00
42591;BME280;28218;53.342;-6.216;2022-12-11T09:16:19;100777.59;;;1.76;100.00
42591;BME280;28218;53.342;-6.216;2022-12-11T09:18:50;100778.31;;;1.78;100.00
42591;BME280;28218;53.342;-6.216;2022-12-11T09:21:19;100767.72;;;1.82;100.00
42591;BME280;28218;53.342;-6.216;2022-12-11T09:23:51;100770.19;;;1.83;100.00
42591;BME280;28218;53.342;-6.216;2022-12-11T09:26:20;100766.16;;;2.03;100.00
42591;BME280;28218;53.342;-6.216;2022-12-11T09:28:50;100759.56;;;2.10;100.00
42591;BME280;28218;53.342;-6.216;2022-12-11T09:31:21;100764.56;;;2.13;100.00
42591;BME280;28218;53.342;-6.216;2022-12-11T09:33:50;100774.69;;;2.16;100.00
42591;BME280;28218;53.342;-6.216;2022-12-11T09:36:18;100778.97;;;2.17;100.00
42591;BME280;28218;53.342;-6.216;2022-12-11T09:38:47;100784.75;;;2.21;100.00
42591;BME280;28218;53.342;-6.216;2022-12-11T09:41:38;100771.88;;;2.19;100.00
42591;BME280;28218;53.342;-6.216;2022-12-11T09:44:31;100779.53;;;2.10;100.00
42591;BME280;28218;53.342;-6.216;2022-12-11T09:47:01;100780.69;;;2.05;100.00
42591;BME280;28218;53.342;-6.216;2022-12-11T09:49:35;100783.41;;;2.04;100.00
42591;BME280;28218;53.342;-6.216;2022-12-11T09:52:10;100777.16;;;2.07;100.00
42591;BME280;28218;53.342;-6.216;2022-12-11T09:54:48;100774.78;;;2.03;100.00
42591;BME280;28218;53.342;-6.216;2022-12-11T09:57:40;100779.66;;;2.08;100.00
42591;BME280;28218;53.342;-6.216;2022-12-11T10:00:17;100783.69;;;2.12;100.00
42591;BME280;28218;53.342;-6.216;2022-12-11T10:05:39;100781.63;;;2.28;100.00
42591;BME280;28218;53.342;-6.216;2022-12-11T10:08:18;100781.97;;;2.35;100.00
42591;BME280;28218;53.342;-6.216;2022-12-11T10:10:53;100779.38;;;2.35;100.00
42591;BME280;28218;53.342;-6.216;2022-12-11T10:13:29;100784.22;;;2.40;100.00
42591;BME280;28218;53.342;-6.216;2022-12-11T10:16:06;100781.44;;;2.54;100.00
42591;BME280;28218;53.342;-6.216;2022-12-11T10:18:38;100781.44;;;2.54;100.00
42591;BME280;28218;53.342;-6.216;2022-12-11T10:21:08;100776.94;;;2.45;100.00
42591;BME280;28218;53.342;-6.216;2022-12-11T10:23:42;100781.16;;;2.35;100.00
42591;BME280;28218;53.342;-6.216;2022-12-11T10:26:15;100781.28;;;2.33;100.00
42591;BME280;28218;53.342;-6.216;2022-12-11T10:28:45;100786.59;;;2.32;100.00
42591;BME280;28218;53.342;-6.216;2022-12-11T10:31:16;100785.03;;;2.29;100.00
42591;BME280;28218;53.342;-6.216;2022-12-11T10:33:53;100786.81;;;2.28;100.00
42591;BME280;28218;53.342;-6.216;2022-12-11T10:36:28;100788.72;;;2.26;100.00
42591;BME280;28218;53.342;-6.216;2022-12-11T10:38:57;100799.31;;;2.23;100.00
42591;BME280;28218;53.342;-6.216;2022-12-11T10:41:34;100792.69;;;2.19;100.00
42591;BME280;28218;53.342;-6.216;2022-12-11T10:44:15;100789.25;;;2.19;100.00
42591;BME280;28218;53.342;-6.216;2022-12-11T10:46:45;100797.19;;;2.17;100.00
42591;BME280;28218;53.342;-6.216;2022-12-11T10:49:21;100796.34;;;2.17;100.00
42591;BME280;28218;53.342;-6.216;2022-12-11T10:51:51;100800.69;;;2.16;100.00
42591;BME280;28218;53.342;-6.216;2022-12-11T10:54:29;100797.28;;;2.16;100.00
42591;BME280;28218;53.342;-6.216;2022-12-11T10:56:59;100795.63;;;2.15;100.00
42591;BME280;28218;53.342;-6.216;2022-12-11T10:59:34;100803.31;;;2.16;100.00
42591;BME280;28218;53.342;-6.216;2022-12-11T11:02:04;100803.31;;;2.16;100.00
42591;BME280;28218;53.342;-6.216;2022-12-11T11:04:35;100803.22;;;2.18;100.00
42591;BME280;28218;53.342;-6.216;2022-12-11T11:07:12;100808.06;;;2.22;100.00
42591;BME280;28218;53.342;-6.216;2022-12-11T11:09:40;100799.94;;;2.27;100.00
42591;BME280;28218;53.342;-6.216;2022-12-11T11:12:20;100803.97;;;2.31;100.00
42591;BME280;28218;53.342;-6.216;2022-12-11T11:14:59;100790.38;;;2.39;100.00
42591;BME280;28218;53.342;-6.216;2022-12-11T11:17:30;100800.22;;;2.46;100.00
42591;BME280;28218;53.342;-6.216;2022-12-11T11:20:05;100796.34;;;2.52;100.00
42591;BME280;28218;53.342;-6.216;2022-12-11T11:22:42;100790.91;;;2.55;100.00
42591;BME280;28218;53.342;-6.216;2022-12-11T11:25:16;100791.41;;;2.60;100.00
42591;BME280;28218;53.342;-6.216;2022-12-11T11:27:51;100782.88;;;2.58;100.00
42591;BME280;28218;53.342;-6.216;2022-12-11T11:30:23;100776.84;;;2.58;100.00
42591;BME280;28218;53.342;-6.216;2022-12-11T11:32:53;100787.84;;;2.61;100.00
42591;BME280;28218;53.342;-6.216;2022-12-11T11:35:24;100779.22;;;2.72;100.00
42591;BME280;28218;53.342;-6.216;2022-12-11T11:38:01;100774.97;;;2.82;100.00
42591;BME280;28218;53.342;-6.216;2022-12-11T11:40:36;100776.44;;;2.97;100.00
42591;BME280;28218;53.342;-6.216;2022-12-11T11:43:14;100765.78;;;3.12;100.00
42591;BME280;28218;53.342;-6.216;2022-12-11T11:45:51;100757.97;;;3.23;100.00
42591;BME280;28218;53.342;-6.216;2022-12-11T11:48:29;100757.38;;;3.30;100.00
42591;BME280;28218;53.342;-6.216;2022-12-11T11:51:07;100756.06;;;3.36;100.00
42591;BME280;28218;53.342;-6.216;2022-12-11T11:53:41;100757.47;;;3.40;100.00
42591;BME280;28218;53.342;-6.216;2022-12-11T11:56:18;100746.09;;;3.41;100.00
42591;BME280;28218;53.342;-6.216;2022-12-11T11:58:53;100740.06;;;3.41;100.00
42591;BME280;28218;53.342;-6.216;2022-12-11T12:01:26;100738.16;;;3.43;100.00
42591;BME280;28218;53.342;-6.216;2022-12-11T12:03:55;100738.06;;;3.44;100.00
42591;BME280;28218;53.342;-6.216;2022-12-11T12:06:33;100744.09;;;3.45;100.00
42591;BME280;28218;53.342;-6.216;2022-12-11T12:09:15;100730.34;;;3.43;100.00
42591;BME280;28218;53.342;-6.216;2022-12-11T12:11:50;100728.91;;;3.39;100.00
42591;BME280;28218;53.342;-6.216;2022-12-11T12:14:23;100724.78;;;3.36;100.00
42591;BME280;28218;53.342;-6.216;2022-12-11T12:17:20;100732.28;;;3.29;100.00
42591;BME280;28218;53.342;-6.216;2022-12-11T12:20:00;100732.38;;;3.28;100.00
42591;BME280;28218;53.342;-6.216;2022-12-11T12:22:43;100729.19;;;3.24;100.00
42591;BME280;28218;53.342;-6.216;2022-12-11T12:25:19;100732.16;;;3.20;100.00
42591;BME280;28218;53.342;-6.216;2022-12-11T12:27:54;100724.69;;;3.15;100.00
42591;BME280;28218;53.342;-6.216;2022-12-11T12:30:27;100729.78;;;3.05;100.00
42591;BME280;28218;53.342;-6.216;2022-12-11T12:33:10;100727.69;;;2.99;100.00
42591;BME280;28218;53.342;-6.216;2022-12-11T12:35:50;100720.09;;;2.96;100.00
42591;BME280;28218;53.342;-6.216;2022-12-11T12:38:39;100711.34;;;2.97;100.00
42591;BME280;28218;53.342;-6.216;2022-12-11T12:41:13;100724.25;;;2.99;100.00
42591;BME280;28218;53.342;-6.216;2022-12-11T12:44:04;100723.41;;;2.98;100.00
42591;BME280;28218;53.342;-6.216;2022-12-11T12:46:45;100719.63;;;3.02;100.00
42591;BME280;28218;53.342;-6.216;2022-12-11T12:49:26;100720.22;;;3.06;100.00
42591;BME280;28218;53.342;-6.216;2022-12-11T12:51:56;100711.47;;;3.07;100.00
42591;BME280;28218;53.342;-6.216;2022-12-11T12:54:26;100715.50;;;3.11;100.00
42591;BME280;28218;53.342;-6.216;2022-12-11T12:56:55;100715.97;;;3.16;100.00
42591;BME280;28218;53.342;-6.216;2022-12-11T12:59:26;100719.72;;;3.23;100.00
42591;BME280;28218;53.342;-6.216;2022-12-11T13:01:57;100727.06;;;3.29;100.00
42591;BME280;28218;53.342;-6.216;2022-12-11T13:04:34;100721.59;;;3.32;100.00
42591;BME280;28218;53.342;-6.216;2022-12-11T13:07:26;100723.72;;;3.39;100.00